createdAt,value
2018-04-26T00:00:25.267Z,93848.42
2018-04-26T00:02:52.943Z,93840.02
2018-04-26T00:05:20.557Z,93844.22
2018-04-26T00:07:48.165Z,93847.52
2018-04-26T00:10:15.868Z,93845.92
2018-04-26T00:12:43.494Z,93851.69
2018-04-26T00:15:11.242Z,93848.57
2018-04-26T00:17:38.891Z,93845.81
2018-04-26T00:20:06.522Z,93846.98
2018-04-26T00:22:34.187Z,93841.59
2018-04-26T00:25:01.837Z,93839.78
2018-04-26T00:27:29.469Z,93840.95
2018-04-26T00:29:57.114Z,93839.88
2018-04-26T00:32:24.786Z,93839.60
2018-04-26T00:34:52.391Z,93840.27
2018-04-26T00:37:20.095Z,93835.69
2018-04-26T00:39:47.803Z,93844.72
2018-04-26T00:42:15.405Z,93846.56
2018-04-26T00:44:43.071Z,93846.39
2018-04-26T00:47:10.736Z,93855.08
2018-04-26T00:49:38.332Z,93853.17
2018-04-26T00:52:05.972Z,93847.05
2018-04-26T00:54:33.588Z,93847.97
2018-04-26T00:57:01.293Z,93847.80
2018-04-26T00:59:28.942Z,93857.56
2018-04-26T01:01:56.684Z,93857.92
2018-04-26T01:04:24.270Z,93861.09
2018-04-26T01:06:51.877Z,93855.95
2018-04-26T01:09:19.526Z,93859.84
2018-04-26T01:11:47.147Z,93865.59
2018-04-26T01:14:14.834Z,93865.17
2018-04-26T01:16:42.472Z,93865.48
2018-04-26T01:19:10.056Z,93865.61
2018-04-26T01:21:37.701Z,93859.86
2018-04-26T01:24:05.322Z,93860.64
2018-04-26T01:26:32.977Z,93865.37
2018-04-26T01:29:00.566Z,93867.22
2018-04-26T01:31:28.240Z,93862.80
2018-04-26T01:33:55.939Z,93864.09
2018-04-26T01:36:35.360Z,93856.73
2018-04-26T01:39:03.018Z,93857.75
2018-04-26T01:41:30.604Z,93856.83
2018-04-26T01:43:58.263Z,93863.47
2018-04-26T01:46:25.870Z,93860.75
2018-04-26T01:48:53.592Z,93855.27
2018-04-26T01:51:21.228Z,93859.76
2018-04-26T01:53:49.311Z,93860.69
2018-04-26T01:56:16.900Z,93870.09
2018-04-26T01:58:44.552Z,93863.81
2018-04-26T02:01:12.189Z,93852.41
2018-04-26T02:03:39.768Z,93848.61
2018-04-26T02:06:07.429Z,93852.64
2018-04-26T02:08:35.050Z,93854.86
2018-04-26T02:11:02.701Z,93855.41
2018-04-26T02:13:30.311Z,93856.48
2018-04-26T02:15:57.937Z,93849.14
2018-04-26T02:18:25.597Z,93852.16
2018-04-26T02:20:53.250Z,93847.17
2018-04-26T02:23:20.886Z,93855.10
2018-04-26T02:25:48.570Z,93851.30
2018-04-26T02:28:16.174Z,93850.36
2018-04-26T02:30:43.824Z,93846.31
2018-04-26T02:33:11.427Z,93846.91
2018-04-26T02:35:39.077Z,93846.95
2018-04-26T02:38:06.784Z,93851.47
2018-04-26T02:40:34.406Z,93850.16
2018-04-26T02:43:02.064Z,93853.31
2018-04-26T02:45:29.772Z,93858.39
2018-04-26T02:47:57.471Z,93853.19
2018-04-26T02:50:58.577Z,93854.11
2018-04-26T02:53:26.232Z,93846.14
2018-04-26T02:55:53.824Z,93855.58
2018-04-26T02:58:21.431Z,93853.34
2018-04-26T03:00:49.145Z,93856.47
2018-04-26T03:03:16.735Z,93853.10
2018-04-26T03:05:44.390Z,93852.27
2018-04-26T03:08:12.037Z,93856.44
2018-04-26T03:10:39.707Z,93856.84
2018-04-26T03:13:07.336Z,93862.88
2018-04-26T03:15:34.959Z,93866.72
2018-04-26T03:18:02.826Z,93867.20
2018-04-26T03:20:30.479Z,93859.00
2018-04-26T03:22:58.072Z,93860.16
2018-04-26T03:25:25.720Z,93857.73
2018-04-26T03:27:53.418Z,93853.67
2018-04-26T03:30:21.077Z,93851.36
2018-04-26T03:32:48.749Z,93849.13
2018-04-26T03:35:16.402Z,93850.77
2018-04-26T03:37:44.102Z,93854.70
2018-04-26T03:40:11.733Z,93859.13
2018-04-26T03:42:39.342Z,93864.73
2018-04-26T03:45:07.014Z,93864.77
2018-04-26T03:47:34.665Z,93869.44
2018-04-26T03:50:02.325Z,93874.88
2018-04-26T03:52:29.963Z,93874.48
2018-04-26T03:54:57.614Z,93881.30
2018-04-26T03:57:25.255Z,93880.44
2018-04-26T04:00:04.819Z,93893.44
2018-04-26T04:02:44.200Z,93900.83
2018-04-26T04:05:23.469Z,93895.35
2018-04-26T04:07:51.161Z,93908.98
2018-04-26T04:10:18.892Z,93911.53
2018-04-26T04:12:46.513Z,93906.06
2018-04-26T04:15:14.111Z,93908.16
2018-04-26T04:17:41.861Z,93906.16
2018-04-26T04:20:09.503Z,93905.13
2018-04-26T04:22:37.178Z,93903.44
2018-04-26T04:25:04.839Z,93907.20
2018-04-26T04:27:32.861Z,93911.16
2018-04-26T04:30:00.509Z,93908.47
2018-04-26T04:32:28.191Z,93898.81
2018-04-26T04:34:56.156Z,93906.87
2018-04-26T04:37:23.919Z,93902.34
2018-04-26T04:39:51.515Z,93898.29
2018-04-26T04:42:19.336Z,93898.83
2018-04-26T04:44:46.977Z,93887.78
2018-04-26T04:47:14.774Z,93886.56
2018-04-26T04:49:43.106Z,93889.45
2018-04-26T04:52:11.233Z,93895.60
2018-04-26T04:54:39.077Z,93897.56
2018-04-26T04:57:06.740Z,93901.61
2018-04-26T04:59:34.351Z,93914.05
2018-04-26T05:02:02.110Z,93913.30
2018-04-26T05:04:29.869Z,93926.74
2018-04-26T05:06:57.651Z,93922.48
2018-04-26T05:09:26.074Z,93938.05
2018-04-26T05:11:53.696Z,93937.67
2018-04-26T05:14:21.527Z,93929.36
2018-04-26T05:16:49.738Z,93930.56
2018-04-26T05:19:18.173Z,93938.73
2018-04-26T05:21:46.248Z,93941.86
2018-04-26T05:24:14.001Z,93945.16
2018-04-26T05:26:41.876Z,93942.53
2018-04-26T05:29:09.849Z,93948.17
2018-04-26T05:31:37.498Z,93946.61
2018-04-26T05:34:05.585Z,93947.00
2018-04-26T05:36:33.450Z,93943.55
2018-04-26T05:39:02.144Z,93940.70
2018-04-26T05:41:29.888Z,93945.66
2018-04-26T05:43:57.798Z,93946.16
2018-04-26T05:46:25.524Z,93944.25
2018-04-26T05:48:53.150Z,93942.86
2018-04-26T05:51:20.957Z,93947.01
2018-04-26T05:53:48.737Z,93948.17
2018-04-26T05:56:16.389Z,93954.03
2018-04-26T05:58:44.029Z,93949.73
2018-04-26T06:01:11.802Z,93959.69
2018-04-26T06:03:39.509Z,93965.17
2018-04-26T06:06:07.245Z,93961.27
2018-04-26T06:08:35.111Z,93963.27
2018-04-26T06:11:02.876Z,93959.30
2018-04-26T06:13:30.517Z,93962.83
2018-04-26T06:15:58.609Z,93964.27
2018-04-26T06:18:26.213Z,93965.64
2018-04-26T06:20:53.931Z,93967.66
2018-04-26T06:23:21.583Z,93973.66
2018-04-26T06:25:49.516Z,93969.73
2018-04-26T06:28:17.186Z,93974.29
2018-04-26T06:30:44.927Z,93980.41
2018-04-26T06:33:12.659Z,93992.97
2018-04-26T06:35:40.343Z,93988.74
2018-04-26T06:38:08.162Z,93992.97
2018-04-26T06:40:36.729Z,94000.02
2018-04-26T06:43:04.431Z,93999.68
2018-04-26T06:45:32.038Z,93998.80
2018-04-26T06:47:59.689Z,93996.67
2018-04-26T06:50:27.495Z,94004.18
2018-04-26T06:52:55.271Z,94007.41
2018-04-26T06:55:22.876Z,94016.09
2018-04-26T06:57:50.542Z,94019.73
2018-04-26T07:00:18.178Z,94017.39
2018-04-26T07:02:45.781Z,94019.12
2018-04-26T07:05:13.451Z,94024.16
2018-04-26T07:07:41.079Z,94030.25
2018-04-26T07:10:08.763Z,94045.02
2018-04-26T07:12:36.375Z,94048.83
2018-04-26T07:15:04.024Z,94051.13
2018-04-26T07:17:31.629Z,94058.59
2018-04-26T07:19:59.272Z,94064.52
2018-04-26T07:22:26.858Z,94065.91
2018-04-26T07:24:54.514Z,94066.27
2018-04-26T07:27:22.109Z,94072.45
2018-04-26T07:29:49.769Z,94075.81
2018-04-26T07:32:17.434Z,94076.41
2018-04-26T07:34:45.092Z,94076.14
2018-04-26T07:37:12.729Z,94070.33
2018-04-26T07:39:40.376Z,94080.92
2018-04-26T07:42:08.041Z,94079.55
2018-04-26T07:44:35.690Z,94085.06
2018-04-26T07:47:03.392Z,94085.12
2018-04-26T07:49:31.031Z,94088.08
2018-04-26T07:51:58.696Z,94092.63
2018-04-26T07:54:26.330Z,94085.79
2018-04-26T07:56:53.939Z,94081.77
2018-04-26T07:59:21.592Z,94093.44
2018-04-26T08:01:49.395Z,94089.80
2018-04-26T08:04:16.918Z,94082.48
2018-04-26T08:06:44.526Z,94092.86
2018-04-26T08:09:12.172Z,94091.97
2018-04-26T08:11:39.822Z,94102.06
2018-04-26T08:14:07.431Z,94105.31
2018-04-26T08:16:35.191Z,94096.91
2018-04-26T08:19:02.830Z,94095.38
2018-04-26T08:21:30.501Z,94093.37
2018-04-26T08:23:58.112Z,94095.00
2018-04-26T08:26:25.813Z,94099.89
2018-04-26T08:28:53.403Z,94099.89
2018-04-26T08:31:21.119Z,94113.53
2018-04-26T08:33:48.878Z,94118.03
2018-04-26T08:36:16.512Z,94114.20
2018-04-26T08:38:44.170Z,94118.09
2018-04-26T08:41:11.775Z,94116.66
2018-04-26T08:43:39.514Z,94122.83
2018-04-26T08:46:07.210Z,94122.88
2018-04-26T08:48:34.799Z,94131.58
2018-04-26T08:51:02.803Z,94129.91
2018-04-26T08:53:30.548Z,94140.05
2018-04-26T08:55:58.208Z,94134.25
2018-04-26T08:58:25.873Z,94129.14
2018-04-26T09:00:53.517Z,94128.53
2018-04-26T09:03:21.197Z,94132.89
2018-04-26T09:05:48.848Z,94137.51
2018-04-26T09:08:16.417Z,94136.12
2018-04-26T09:10:44.040Z,94133.73
2018-04-26T09:13:11.637Z,94137.09
2018-04-26T09:15:39.317Z,94140.78
2018-04-26T09:18:06.933Z,94135.38
2018-04-26T09:20:34.623Z,94132.83
2018-04-26T09:23:02.243Z,94129.56
2018-04-26T09:25:29.872Z,94129.52
2018-04-26T09:27:57.579Z,94130.38
2018-04-26T09:30:25.264Z,94120.48
2018-04-26T09:32:52.899Z,94124.78
2018-04-26T09:35:22.475Z,94121.40
2018-04-26T09:37:50.122Z,94120.54
2018-04-26T09:40:17.763Z,94116.23
2018-04-26T09:42:45.407Z,94116.66
2018-04-26T09:45:13.041Z,94121.26
2018-04-26T09:47:40.642Z,94119.08
2018-04-26T09:50:08.289Z,94117.77
2018-04-26T09:52:35.953Z,94125.04
2018-04-26T09:55:03.600Z,94123.47
2018-04-26T09:57:31.296Z,94123.59
2018-04-26T09:59:58.883Z,94127.91
2018-04-26T10:02:26.554Z,94128.85
2018-04-26T10:04:55.469Z,94127.91
2018-04-26T10:07:23.234Z,94135.30
2018-04-26T10:09:50.961Z,94133.10
2018-04-26T10:12:18.579Z,94136.83
2018-04-26T10:14:46.281Z,94135.16
2018-04-26T10:17:13.908Z,94142.08
2018-04-26T10:19:41.796Z,94143.83
2018-04-26T10:22:09.469Z,94147.86
2018-04-26T10:24:37.065Z,94155.44
2018-04-26T10:27:04.781Z,94150.86
2018-04-26T10:29:32.549Z,94148.83
2018-04-26T10:32:00.245Z,94151.61
2018-04-26T10:34:28.846Z,94153.79
2018-04-26T10:36:56.510Z,94162.16
2018-04-26T10:39:24.174Z,94167.29
2018-04-26T10:41:52.589Z,94172.90
2018-04-26T10:44:20.255Z,94174.30
2018-04-26T10:46:47.907Z,94176.00
2018-04-26T10:49:15.572Z,94181.50
2018-04-26T10:51:43.200Z,94191.30
2018-04-26T10:54:10.964Z,94190.11
2018-04-26T10:56:38.569Z,94188.63
2018-04-26T10:59:06.252Z,94184.22
2018-04-26T11:01:33.950Z,94180.63
2018-04-26T11:04:01.611Z,94186.41
2018-04-26T11:06:29.317Z,94198.97
2018-04-26T11:08:56.954Z,94196.88
2018-04-26T11:11:24.675Z,94192.76
2018-04-26T11:13:52.314Z,94199.63
2018-04-26T11:16:19.972Z,94200.96
2018-04-26T11:18:47.573Z,94206.86
2018-04-26T11:21:17.460Z,94205.89
2018-04-26T11:23:45.113Z,94208.73
2018-04-26T11:26:14.032Z,94201.86
2018-04-26T11:28:41.831Z,94194.52
2018-04-26T11:31:09.597Z,94197.24
2018-04-26T11:33:37.233Z,94204.58
2018-04-26T11:36:04.950Z,94202.33
2018-04-26T11:38:32.639Z,94209.53
2018-04-26T11:41:00.305Z,94218.34
2018-04-26T11:43:28.038Z,94214.20
2018-04-26T11:45:55.653Z,94216.31
2018-04-26T11:48:23.343Z,94227.98
2018-04-26T11:50:50.965Z,94245.63
2018-04-26T11:53:19.776Z,94251.46
2018-04-26T11:55:47.439Z,94250.15
2018-04-26T11:58:15.093Z,94253.40
2018-04-26T12:00:42.780Z,94254.63
2018-04-26T12:03:10.470Z,94252.64
2018-04-26T12:05:38.105Z,94239.28
2018-04-26T12:08:05.758Z,94244.14
2018-04-26T12:10:33.493Z,94239.46
2018-04-26T12:13:01.164Z,94245.41
2018-04-26T12:15:28.790Z,94249.73
2018-04-26T12:17:56.494Z,94261.27
2018-04-26T12:20:24.157Z,94262.81
2018-04-26T12:22:51.984Z,94264.76
2018-04-26T12:25:19.674Z,94264.18
2018-04-26T12:27:47.317Z,94270.88
2018-04-26T12:30:14.987Z,94264.47
2018-04-26T12:32:42.717Z,94274.06
2018-04-26T12:35:10.340Z,94261.83
2018-04-26T12:37:38.016Z,94266.77
2018-04-26T12:40:05.740Z,94265.92
2018-04-26T12:42:33.486Z,94259.13
2018-04-26T12:45:01.097Z,94268.36
2018-04-26T12:47:28.801Z,94273.73
2018-04-26T12:49:56.453Z,94263.89
2018-04-26T12:52:24.077Z,94262.17
2018-04-26T12:54:52.620Z,94265.30
2018-04-26T12:57:20.279Z,94265.47
2018-04-26T12:59:48.034Z,94270.05
2018-04-26T13:02:15.697Z,94264.97
2018-04-26T13:04:43.458Z,94262.63
2018-04-26T13:07:11.050Z,94262.31
2018-04-26T13:09:38.697Z,94266.38
2018-04-26T13:12:06.387Z,94262.13
2018-04-26T13:14:33.990Z,94268.70
2018-04-26T13:17:01.579Z,94272.62
2018-04-26T13:19:29.236Z,94274.20
2018-04-26T13:21:56.896Z,94269.27
2018-04-26T13:24:24.587Z,94267.60
2018-04-26T13:26:52.453Z,94266.30
2018-04-26T13:29:20.138Z,94272.53
2018-04-26T13:31:47.797Z,94276.17
2018-04-26T13:34:15.477Z,94273.62
2018-04-26T13:36:43.110Z,94282.70
2018-04-26T13:39:10.799Z,94275.22
2018-04-26T13:41:38.501Z,94269.02
2018-04-26T13:44:06.157Z,94265.80
2018-04-26T13:46:33.855Z,94264.27
2018-04-26T13:49:01.524Z,94267.44
2018-04-26T13:51:29.182Z,94271.91
2018-04-26T13:53:56.840Z,94264.13
2018-04-26T13:56:24.463Z,94262.50
2018-04-26T13:58:53.110Z,94262.11
2018-04-26T14:01:20.728Z,94261.59
2018-04-26T14:03:48.435Z,94261.72
2018-04-26T14:06:16.161Z,94265.85
2018-04-26T14:08:43.836Z,94282.34
2018-04-26T14:11:11.488Z,94284.66
2018-04-26T14:13:39.086Z,94279.83
2018-04-26T14:16:06.752Z,94269.81
2018-04-26T14:18:34.411Z,94274.05
2018-04-26T14:21:02.106Z,94277.78
2018-04-26T14:23:29.799Z,94286.73
2018-04-26T14:25:57.491Z,94286.23
2018-04-26T14:28:25.183Z,94291.26
2018-04-26T14:30:52.885Z,94294.31
2018-04-26T14:33:20.652Z,94297.13
2018-04-26T14:35:48.510Z,94305.06
2018-04-26T14:38:16.221Z,94311.41
2018-04-26T14:40:43.924Z,94307.00
2018-04-26T14:43:11.722Z,94300.49
2018-04-26T14:45:39.355Z,94295.48
2018-04-26T14:48:07.083Z,94286.55
2018-04-26T14:50:34.740Z,94283.87
2018-04-26T14:53:02.461Z,94280.25
2018-04-26T14:55:30.096Z,94288.16
2018-04-26T14:57:57.776Z,94280.41
2018-04-26T15:00:25.466Z,94275.26
2018-04-26T15:02:53.162Z,94285.06
2018-04-26T15:05:21.447Z,94285.68
2018-04-26T15:07:49.098Z,94280.52
2018-04-26T15:10:16.766Z,94282.68
2018-04-26T15:12:44.681Z,94280.25
2018-04-26T15:15:12.431Z,94281.09
2018-04-26T15:17:40.505Z,94279.79
2018-04-26T15:20:08.372Z,94280.48
2018-04-26T15:22:37.589Z,94281.35
2018-04-26T15:25:06.160Z,94287.86
2018-04-26T15:27:33.867Z,94284.87
2018-04-26T15:30:01.682Z,94293.45
2018-04-26T15:32:29.343Z,94288.69
2018-04-26T15:34:57.090Z,94290.69
2018-04-26T15:37:25.656Z,94286.64
2018-04-26T15:39:53.354Z,94289.70
2018-04-26T15:42:21.134Z,94288.59
2018-04-26T15:44:48.790Z,94284.00
2018-04-26T15:47:16.405Z,94282.95
2018-04-26T15:49:44.097Z,94285.10
2018-04-26T15:52:11.881Z,94289.38
2018-04-26T15:55:00.325Z,94295.06
2018-04-26T16:01:00.873Z,94300.59
2018-04-26T16:03:40.214Z,94299.47
2018-04-26T16:06:32.438Z,94306.97
2018-04-26T16:09:11.983Z,94315.95
2018-04-26T16:11:52.099Z,94318.02
2018-04-26T16:14:35.325Z,94321.28
2018-04-26T16:17:32.753Z,94323.91
2018-04-26T16:20:18.692Z,94323.91
2018-04-26T16:23:03.796Z,94323.66
2018-04-26T16:25:43.629Z,94325.86
2018-04-26T16:28:28.721Z,94323.27
2018-04-26T16:31:13.867Z,94319.43
2018-04-26T16:33:55.312Z,94328.07
2018-04-26T16:36:34.613Z,94319.52
2018-04-26T16:39:09.981Z,94314.55
2018-04-26T16:41:37.712Z,94311.98
2018-04-26T16:44:05.441Z,94313.44
2018-04-26T16:46:33.127Z,94321.67
2018-04-26T16:49:02.190Z,94320.16
2018-04-26T16:51:29.849Z,94320.00
2018-04-26T16:53:57.774Z,94317.41
2018-04-26T16:56:25.762Z,94314.91
2018-04-26T16:58:53.780Z,94317.58
2018-04-26T17:01:22.059Z,94316.76
2018-04-26T17:03:50.375Z,94316.18
2018-04-26T17:06:20.259Z,94315.82
2018-04-26T17:08:48.091Z,94317.55
2018-04-26T17:11:16.839Z,94315.93
2018-04-26T17:13:44.760Z,94315.31
2018-04-26T17:16:12.791Z,94316.33
2018-04-26T17:18:40.669Z,94319.83
2018-04-26T17:21:08.429Z,94317.05
2018-04-26T17:23:38.002Z,94314.55
2018-04-26T17:26:07.534Z,94318.20
2018-04-26T17:28:35.708Z,94319.19
2018-04-26T17:31:03.829Z,94319.18
2018-04-26T17:33:32.667Z,94318.24
2018-04-26T17:36:01.668Z,94316.65
2018-04-26T17:38:29.471Z,94314.30
2018-04-26T17:40:57.573Z,94329.09
2018-04-26T17:43:25.463Z,94327.52
2018-04-26T17:45:54.555Z,94334.97
2018-04-26T17:48:22.419Z,94332.08
2018-04-26T17:50:51.008Z,94339.09
2018-04-26T17:53:19.739Z,94341.19
2018-04-26T17:55:47.556Z,94332.77
2018-04-26T17:58:15.233Z,94337.53
2018-04-26T18:00:43.089Z,94328.06
2018-04-26T18:03:11.127Z,94332.19
2018-04-26T18:05:38.816Z,94335.52
2018-04-26T18:08:06.679Z,94348.24
2018-04-26T18:10:34.762Z,94344.63
2018-04-26T18:13:02.941Z,94346.22
2018-04-26T18:15:31.034Z,94346.84
2018-04-26T18:17:58.877Z,94335.50
2018-04-26T18:20:26.929Z,94340.14
2018-04-26T18:22:56.017Z,94334.52
2018-04-26T18:25:23.702Z,94332.72
2018-04-26T18:27:51.526Z,94333.66
2018-04-26T18:30:19.748Z,94346.98
2018-04-26T18:32:47.761Z,94349.07
2018-04-26T18:35:15.465Z,94347.74
2018-04-26T18:37:43.559Z,94354.30
2018-04-26T18:40:11.685Z,94370.11
2018-04-26T18:42:39.490Z,94364.42
2018-04-26T18:45:10.342Z,94369.74
2018-04-26T18:47:38.434Z,94365.74
2018-04-26T18:50:06.288Z,94363.97
2018-04-26T18:52:34.299Z,94368.63
2018-04-26T18:55:02.422Z,94369.53
2018-04-26T18:57:30.178Z,94382.31
2018-04-26T18:59:58.109Z,94382.55
2018-04-26T19:02:25.978Z,94384.94
2018-04-26T19:04:53.654Z,94383.03
2018-04-26T19:07:21.426Z,94394.25
2018-04-26T19:09:49.644Z,94387.97
2018-04-26T19:12:17.272Z,94396.08
2018-04-26T19:14:44.963Z,94391.76
2018-04-26T19:17:12.631Z,94394.30
2018-04-26T19:19:40.281Z,94389.10
2018-04-26T19:22:08.004Z,94384.52
2018-04-26T19:24:35.737Z,94386.50
2018-04-26T19:27:03.328Z,94396.42
2018-04-26T19:29:31.752Z,94404.39
2018-04-26T19:31:59.396Z,94393.38
2018-04-26T19:34:27.067Z,94392.49
2018-04-26T19:36:54.734Z,94393.94
2018-04-26T19:39:22.508Z,94390.36
2018-04-26T19:41:50.154Z,94392.27
2018-04-26T19:44:17.824Z,94400.54
2018-04-26T19:46:46.479Z,94400.44
2018-04-26T19:49:14.156Z,94408.23
2018-04-26T19:51:41.884Z,94407.81
2018-04-26T19:54:09.585Z,94405.59
2018-04-26T19:56:37.315Z,94413.23
2018-04-26T19:59:04.935Z,94416.23
2018-04-26T20:01:32.614Z,94415.00
2018-04-26T20:04:00.317Z,94419.75
2018-04-26T20:06:27.978Z,94423.05
2018-04-26T20:08:55.625Z,94432.91
2018-04-26T20:11:23.339Z,94431.30
2018-04-26T20:13:50.971Z,94429.02
2018-04-26T20:16:18.657Z,94431.38
2018-04-26T20:18:46.358Z,94428.62
2018-04-26T20:21:14.054Z,94434.84
2018-04-26T20:23:41.650Z,94434.34
2018-04-26T20:26:09.334Z,94436.52
2018-04-26T20:28:36.970Z,94443.49
2018-04-26T20:31:04.728Z,94437.48
2018-04-26T20:33:32.371Z,94433.16
2018-04-26T20:36:00.066Z,94441.24
2018-04-26T20:38:27.710Z,94432.02
2018-04-26T20:40:55.404Z,94439.49
2018-04-26T20:43:23.048Z,94433.31
2018-04-26T20:45:50.756Z,94434.26
2018-04-26T20:48:30.040Z,94432.65
2018-04-26T20:50:57.724Z,94433.45
2018-04-26T20:53:25.309Z,94432.55
2018-04-26T20:55:52.984Z,94420.63
2018-04-26T20:58:20.644Z,94421.44
2018-04-26T21:00:48.313Z,94436.91
2018-04-26T21:03:15.985Z,94442.03
2018-04-26T21:05:43.753Z,94432.94
2018-04-26T21:08:11.351Z,94435.94
2018-04-26T21:10:39.243Z,94438.30
2018-04-26T21:13:06.897Z,94441.61
2018-04-26T21:15:34.557Z,94449.67
2018-04-26T21:18:02.289Z,94440.62
2018-04-26T21:20:29.892Z,94443.30
2018-04-26T21:22:57.474Z,94444.41
2018-04-26T21:25:25.165Z,94456.10
2018-04-26T21:27:52.808Z,94454.22
2018-04-26T21:30:20.406Z,94450.45
2018-04-26T21:32:48.036Z,94441.08
2018-04-26T21:35:15.695Z,94440.30
2018-04-26T21:37:43.319Z,94443.02
2018-04-26T21:40:10.926Z,94445.31
2018-04-26T21:42:38.644Z,94449.70
2018-04-26T21:45:06.293Z,94453.53
2018-04-26T21:47:33.941Z,94453.43
2018-04-26T21:50:07.317Z,94445.14
2018-04-26T21:52:40.458Z,94450.75
2018-04-26T21:55:13.498Z,94447.27
2018-04-26T21:57:46.805Z,94439.48
2018-04-26T22:00:20.031Z,94443.92
2018-04-26T22:02:47.116Z,94451.69
2018-04-26T22:05:33.277Z,94449.80
2018-04-26T22:08:01.053Z,94454.79
2018-04-26T22:10:28.750Z,94443.22
2018-04-26T22:12:56.407Z,94446.55
2018-04-26T22:15:24.265Z,94447.95
2018-04-26T22:17:51.836Z,94450.77
2018-04-26T22:20:19.452Z,94444.48
2018-04-26T22:22:47.074Z,94455.14
2018-04-26T22:25:14.662Z,94448.97
2018-04-26T22:27:42.283Z,94455.75
2018-04-26T22:30:11.400Z,94459.43
2018-04-26T22:32:39.025Z,94457.46
2018-04-26T22:35:06.780Z,94462.45
2018-04-26T22:37:34.401Z,94460.92
2018-04-26T22:40:01.986Z,94466.93
2018-04-26T22:42:29.622Z,94466.02
2018-04-26T22:44:57.239Z,94468.70
2018-04-26T22:47:24.893Z,94467.41
2018-04-26T22:49:52.465Z,94465.24
2018-04-26T22:52:20.114Z,94463.83
2018-04-26T22:54:47.707Z,94468.02
2018-04-26T22:57:15.353Z,94470.11
2018-04-26T22:59:42.973Z,94460.95
2018-04-26T23:02:10.636Z,94464.44
2018-04-26T23:04:38.338Z,94459.24
2018-04-26T23:07:05.947Z,94466.52
2018-04-26T23:09:33.592Z,94462.83
2018-04-26T23:12:01.268Z,94464.23
2018-04-26T23:14:28.894Z,94472.55
2018-04-26T23:16:56.575Z,94477.42
2018-04-26T23:19:24.200Z,94475.55
2018-04-26T23:21:51.899Z,94477.63
2018-04-26T23:24:19.488Z,94476.22
2018-04-26T23:26:47.084Z,94474.73
2018-04-26T23:29:14.714Z,94480.01
2018-04-26T23:31:42.380Z,94474.23
2018-04-26T23:34:10.013Z,94467.76
2018-04-26T23:36:37.635Z,94466.14
2018-04-26T23:39:06.239Z,94456.27
2018-04-26T23:41:33.843Z,94457.05
2018-04-26T23:44:01.504Z,94450.90
2018-04-26T23:46:29.165Z,94443.05
2018-04-26T23:48:56.801Z,94442.84
2018-04-26T23:51:24.491Z,94442.89
2018-04-26T23:53:52.064Z,94437.31
2018-04-26T23:56:19.719Z,94436.56
2018-04-26T23:58:47.345Z,94429.78
